sensor_id;sensor_type;location;lat;lon;timestamp;temperature;humidity
11824;DHT22;5969;50.780;7.726;2022-09-28T00:02:20;8.10;99.90
11824;DHT22;5969;50.780;7.726;2022-09-28T00:04:47;8.10;99.90
11824;DHT22;5969;50.780;7.726;2022-09-28T00:07:13;8.10;99.90
11824;DHT22;5969;50.780;7.726;2022-09-28T00:09:40;8.10;99.90
11824;DHT22;5969;50.780;7.726;2022-09-28T00:12:09;8.20;99.90
11824;DHT22;5969;50.780;7.726;2022-09-28T00:14:36;8.20;99.90
11824;DHT22;5969;50.780;7.726;2022-09-28T00:17:05;8.10;99.90
11824;DHT22;5969;50.780;7.726;2022-09-28T00:19:32;8.10;99.90
11824;DHT22;5969;50.780;7.726;2022-09-28T00:21:59;8.10;99.90
11824;DHT22;5969;50.780;7.726;2022-09-28T00:24:26;8.20;99.90
11824;DHT22;5969;50.780;7.726;2022-09-28T00:26:54;8.20;99.90
11824;DHT22;5969;50.780;7.726;2022-09-28T00:29:25;8.20;99.90
11824;DHT22;5969;50.780;7.726;2022-09-28T00:31:53;8.20;99.90
11824;DHT22;5969;50.780;7.726;2022-09-28T00:34:24;8.30;99.90
11824;DHT22;5969;50.780;7.726;2022-09-28T00:36:51;8.30;99.90
11824;DHT22;5969;50.780;7.726;2022-09-28T00:39:18;8.30;99.90
11824;DHT22;5969;50.780;7.726;2022-09-28T00:41:46;8.30;99.90
11824;DHT22;5969;50.780;7.726;2022-09-28T00:44:34;8.30;99.90
11824;DHT22;5969;50.780;7.726;2022-09-28T00:47:08;8.30;99.90
11824;DHT22;5969;50.780;7.726;2022-09-28T00:49:41;8.30;99.90
11824;DHT22;5969;50.780;7.726;2022-09-28T00:52:12;8.30;99.90
11824;DHT22;5969;50.780;7.726;2022-09-28T00:54:41;8.30;99.90
11824;DHT22;5969;50.780;7.726;2022-09-28T00:57:08;8.30;99.90
11824;DHT22;5969;50.780;7.726;2022-09-28T00:59:37;8.30;99.90
11824;DHT22;5969;50.780;7.726;2022-09-28T01:02:03;8.30;99.90
11824;DHT22;5969;50.780;7.726;2022-09-28T01:04:30;8.30;99.90
11824;DHT22;5969;50.780;7.726;2022-09-28T01:06:58;8.30;99.90
11824;DHT22;5969;50.780;7.726;2022-09-28T01:09:26;8.30;99.90
11824;DHT22;5969;50.780;7.726;2022-09-28T01:11:53;8.30;99.90
11824;DHT22;5969;50.780;7.726;2022-09-28T01:14:21;8.30;99.90
11824;DHT22;5969;50.780;7.726;2022-09-28T01:16:56;8.30;99.90
11824;DHT22;5969;50.780;7.726;2022-09-28T01:19:55;8.30;99.90
11824;DHT22;5969;50.780;7.726;2022-09-28T01:22:34;8.20;99.90
11824;DHT22;5969;50.780;7.726;2022-09-28T01:25:09;8.20;99.90
11824;DHT22;5969;50.780;7.726;2022-09-28T01:27:41;8.30;99.90
11824;DHT22;5969;50.780;7.726;2022-09-28T01:30:11;8.20;99.90
11824;DHT22;5969;50.780;7.726;2022-09-28T01:32:48;8.20;99.90
11824;DHT22;5969;50.780;7.726;2022-09-28T01:35:18;8.20;99.90
11824;DHT22;5969;50.780;7.726;2022-09-28T01:37:51;8.20;99.90
11824;DHT22;5969;50.780;7.726;2022-09-28T01:40:20;8.20;99.90
11824;DHT22;5969;50.780;7.726;2022-09-28T01:42:53;8.20;99.90
11824;DHT22;5969;50.780;7.726;2022-09-28T01:45:24;8.20;99.90
11824;DHT22;5969;50.780;7.726;2022-09-28T01:47:55;8.20;99.90
11824;DHT22;5969;50.780;7.726;2022-09-28T01:50:25;8.20;99.90
11824;DHT22;5969;50.780;7.726;2022-09-28T01:52:55;8.10;99.90
11824;DHT22;5969;50.780;7.726;2022-09-28T01:55:28;8.10;99.90
11824;DHT22;5969;50.780;7.726;2022-09-28T01:58:01;8.10;99.90
11824;DHT22;5969;50.780;7.726;2022-09-28T02:00:32;8.10;99.90
11824;DHT22;5969;50.780;7.726;2022-09-28T02:03:05;8.10;99.90
11824;DHT22;5969;50.780;7.726;2022-09-28T02:05:36;8.10;99.90
11824;DHT22;5969;50.780;7.726;2022-09-28T02:08:08;8.00;99.90
11824;DHT22;5969;50.780;7.726;2022-09-28T02:10:41;8.00;99.90
11824;DHT22;5969;50.780;7.726;2022-09-28T02:13:15;8.00;99.90
11824;DHT22;5969;50.780;7.726;2022-09-28T02:15:48;8.00;99.90
11824;DHT22;5969;50.780;7.726;2022-09-28T02:18:16;7.90;99.90
11824;DHT22;5969;50.780;7.726;2022-09-28T02:20:48;7.90;99.90
11824;DHT22;5969;50.780;7.726;2022-09-28T02:23:18;7.90;99.90
11824;DHT22;5969;50.780;7.726;2022-09-28T02:25:49;7.90;99.90
11824;DHT22;5969;50.780;7.726;2022-09-28T02:28:18;7.90;99.90
11824;DHT22;5969;50.780;7.726;2022-09-28T02:30:45;7.90;99.90
11824;DHT22;5969;50.780;7.726;2022-09-28T02:33:14;7.90;99.90
11824;DHT22;5969;50.780;7.726;2022-09-28T02:35:42;7.90;99.90
11824;DHT22;5969;50.780;7.726;2022-09-28T02:38:09;7.80;99.90
11824;DHT22;5969;50.780;7.726;2022-09-28T02:40:37;7.80;99.90
11824;DHT22;5969;50.780;7.726;2022-09-28T02:43:11;7.80;99.90
11824;DHT22;5969;50.780;7.726;2022-09-28T02:45:55;7.80;99.90
11824;DHT22;5969;50.780;7.726;2022-09-28T02:48:37;7.80;99.90
11824;DHT22;5969;50.780;7.726;2022-09-28T02:51:17;7.80;99.90
11824;DHT22;5969;50.780;7.726;2022-09-28T02:53:55;7.80;99.90
11824;DHT22;5969;50.780;7.726;2022-09-28T02:56:40;7.80;99.90
11824;DHT22;5969;50.780;7.726;2022-09-28T02:59:19;7.80;99.90
11824;DHT22;5969;50.780;7.726;2022-09-28T03:01:53;7.80;99.90
11824;DHT22;5969;50.780;7.726;2022-09-28T03:04:29;7.80;99.90
11824;DHT22;5969;50.780;7.726;2022-09-28T03:07:00;7.80;99.90
11824;DHT22;5969;50.780;7.726;2022-09-28T03:09:34;7.80;99.90
11824;DHT22;5969;50.780;7.726;2022-09-28T03:12:06;7.80;99.90
11824;DHT22;5969;50.780;7.726;2022-09-28T03:14:34;7.80;99.90
11824;DHT22;5969;50.780;7.726;2022-09-28T03:17:02;7.80;99.90
11824;DHT22;5969;50.780;7.726;2022-09-28T03:19:32;7.80;99.90
11824;DHT22;5969;50.780;7.726;2022-09-28T03:22:01;7.80;99.90
11824;DHT22;5969;50.780;7.726;2022-09-28T03:24:28;7.80;99.90
11824;DHT22;5969;50.780;7.726;2022-09-28T03:26:54;7.80;99.90
11824;DHT22;5969;50.780;7.726;2022-09-28T03:29:21;7.80;99.90
11824;DHT22;5969;50.780;7.726;2022-09-28T03:31:48;7.80;99.90
11824;DHT22;5969;50.780;7.726;2022-09-28T03:34:16;7.80;99.90
11824;DHT22;5969;50.780;7.726;2022-09-28T03:36:43;7.80;99.90
11824;DHT22;5969;50.780;7.726;2022-09-28T03:39:09;7.80;99.90
11824;DHT22;5969;50.780;7.726;2022-09-28T03:41:36;7.80;99.90
11824;DHT22;5969;50.780;7.726;2022-09-28T03:44:03;7.70;99.90
11824;DHT22;5969;50.780;7.726;2022-09-28T03:46:30;7.70;99.90
11824;DHT22;5969;50.780;7.726;2022-09-28T03:48:57;7.70;99.90
11824;DHT22;5969;50.780;7.726;2022-09-28T03:51:25;7.70;99.90
11824;DHT22;5969;50.780;7.726;2022-09-28T03:53:52;7.70;99.90
11824;DHT22;5969;50.780;7.726;2022-09-28T03:56:18;7.70;99.90
11824;DHT22;5969;50.780;7.726;2022-09-28T03:58:45;7.70;99.90
11824;DHT22;5969;50.780;7.726;2022-09-28T04:01:13;7.70;99.90
11824;DHT22;5969;50.780;7.726;2022-09-28T04:03:40;7.70;99.90
11824;DHT22;5969;50.780;7.726;2022-09-28T04:06:07;7.70;99.90
11824;DHT22;5969;50.780;7.726;2022-09-28T04:08:35;7.70;99.90
11824;DHT22;5969;50.780;7.726;2022-09-28T04:11:02;7.70;99.90
11824;DHT22;5969;50.780;7.726;2022-09-28T04:13:30;7.80;99.90
11824;DHT22;5969;50.780;7.726;2022-09-28T04:15:58;7.70;99.90
11824;DHT22;5969;50.780;7.726;2022-09-28T04:18:25;7.70;99.90
11824;DHT22;5969;50.780;7.726;2022-09-28T04:21:00;7.70;99.90
11824;DHT22;5969;50.780;7.726;2022-09-28T04:23:31;7.70;99.90
11824;DHT22;5969;50.780;7.726;2022-09-28T04:25:59;7.70;99.90
11824;DHT22;5969;50.780;7.726;2022-09-28T04:28:26;7.70;99.90
11824;DHT22;5969;50.780;7.726;2022-09-28T04:31:12;7.70;99.90
11824;DHT22;5969;50.780;7.726;2022-09-28T04:33:39;7.70;99.90
11824;DHT22;5969;50.780;7.726;2022-09-28T04:36:06;7.70;99.90
11824;DHT22;5969;50.780;7.726;2022-09-28T04:38:34;7.70;99.90
11824;DHT22;5969;50.780;7.726;2022-09-28T04:41:02;7.70;99.90
11824;DHT22;5969;50.780;7.726;2022-09-28T04:43:29;7.70;99.90
11824;DHT22;5969;50.780;7.726;2022-09-28T04:45:57;7.70;99.90
11824;DHT22;5969;50.780;7.726;2022-09-28T04:48:25;7.70;99.90
11824;DHT22;5969;50.780;7.726;2022-09-28T04:50:53;7.70;99.90
11824;DHT22;5969;50.780;7.726;2022-09-28T04:53:20;7.70;99.90
11824;DHT22;5969;50.780;7.726;2022-09-28T04:55:57;7.80;99.90
11824;DHT22;5969;50.780;7.726;2022-09-28T04:58:26;7.70;99.90
11824;DHT22;5969;50.780;7.726;2022-09-28T05:00:57;7.70;99.90
11824;DHT22;5969;50.780;7.726;2022-09-28T05:03:24;7.70;99.90
11824;DHT22;5969;50.780;7.726;2022-09-28T05:05:51;7.70;99.90
11824;DHT22;5969;50.780;7.726;2022-09-28T05:08:18;7.70;99.90
11824;DHT22;5969;50.780;7.726;2022-09-28T05:10:45;7.70;99.90
11824;DHT22;5969;50.780;7.726;2022-09-28T05:13:12;7.70;99.90
11824;DHT22;5969;50.780;7.726;2022-09-28T05:15:40;7.70;99.90
11824;DHT22;5969;50.780;7.726;2022-09-28T05:18:07;7.70;99.90
11824;DHT22;5969;50.780;7.726;2022-09-28T05:20:39;7.70;99.90
11824;DHT22;5969;50.780;7.726;2022-09-28T05:23:09;7.70;99.90
11824;DHT22;5969;50.780;7.726;2022-09-28T05:25:36;7.70;99.90
11824;DHT22;5969;50.780;7.726;2022-09-28T05:28:03;7.70;99.90
11824;DHT22;5969;50.780;7.726;2022-09-28T05:30:31;7.70;99.90
11824;DHT22;5969;50.780;7.726;2022-09-28T05:32:59;7.70;99.90
11824;DHT22;5969;50.780;7.726;2022-09-28T05:35:26;7.70;99.90
11824;DHT22;5969;50.780;7.726;2022-09-28T05:37:54;7.70;99.90
11824;DHT22;5969;50.780;7.726;2022-09-28T05:40:21;7.70;99.90
11824;DHT22;5969;50.780;7.726;2022-09-28T05:42:48;7.60;99.90
11824;DHT22;5969;50.780;7.726;2022-09-28T05:45:15;7.60;99.90
11824;DHT22;5969;50.780;7.726;2022-09-28T05:47:42;7.60;99.90
11824;DHT22;5969;50.780;7.726;2022-09-28T05:50:12;7.60;99.90
11824;DHT22;5969;50.780;7.726;2022-09-28T05:52:41;7.60;99.90
11824;DHT22;5969;50.780;7.726;2022-09-28T05:55:09;7.50;99.90
11824;DHT22;5969;50.780;7.726;2022-09-28T05:57:35;7.50;99.90
11824;DHT22;5969;50.780;7.726;2022-09-28T06:00:03;7.50;99.90
11824;DHT22;5969;50.780;7.726;2022-09-28T06:02:32;7.50;99.90
11824;DHT22;5969;50.780;7.726;2022-09-28T06:04:58;7.50;99.90
11824;DHT22;5969;50.780;7.726;2022-09-28T06:07:27;7.50;99.90
11824;DHT22;5969;50.780;7.726;2022-09-28T06:09:54;7.50;99.90
11824;DHT22;5969;50.780;7.726;2022-09-28T06:12:20;7.50;99.90
11824;DHT22;5969;50.780;7.726;2022-09-28T06:14:47;7.50;99.90
11824;DHT22;5969;50.780;7.726;2022-09-28T06:17:14;7.50;99.90
11824;DHT22;5969;50.780;7.726;2022-09-28T06:19:41;7.50;99.90
11824;DHT22;5969;50.780;7.726;2022-09-28T06:22:08;7.60;99.90
11824;DHT22;5969;50.780;7.726;2022-09-28T06:24:36;7.60;99.90
11824;DHT22;5969;50.780;7.726;2022-09-28T06:27:03;7.60;99.90
11824;DHT22;5969;50.780;7.726;2022-09-28T06:29:30;7.60;99.90
11824;DHT22;5969;50.780;7.726;2022-09-28T06:31:56;7.60;99.90
11824;DHT22;5969;50.780;7.726;2022-09-28T06:34:23;7.60;99.90
11824;DHT22;5969;50.780;7.726;2022-09-28T06:36:50;7.60;99.90
11824;DHT22;5969;50.780;7.726;2022-09-28T06:39:17;7.60;99.90
11824;DHT22;5969;50.780;7.726;2022-09-28T06:41:45;7.70;99.90
11824;DHT22;5969;50.780;7.726;2022-09-28T06:44:11;7.70;99.90
11824;DHT22;5969;50.780;7.726;2022-09-28T06:46:38;7.70;99.90
11824;DHT22;5969;50.780;7.726;2022-09-28T06:49:05;7.70;99.90
11824;DHT22;5969;50.780;7.726;2022-09-28T06:51:33;7.70;99.90
11824;DHT22;5969;50.780;7.726;2022-09-28T06:54:00;7.70;99.90
11824;DHT22;5969;50.780;7.726;2022-09-28T06:56:27;7.70;99.90
11824;DHT22;5969;50.780;7.726;2022-09-28T06:58:55;7.80;99.90
11824;DHT22;5969;50.780;7.726;2022-09-28T07:01:22;7.80;99.90
11824;DHT22;5969;50.780;7.726;2022-09-28T07:03:48;7.90;99.90
11824;DHT22;5969;50.780;7.726;2022-09-28T07:06:15;7.90;99.90
11824;DHT22;5969;50.780;7.726;2022-09-28T07:08:42;7.90;99.90
11824;DHT22;5969;50.780;7.726;2022-09-28T07:11:09;8.00;99.90
11824;DHT22;5969;50.780;7.726;2022-09-28T07:13:36;8.00;99.90
11824;DHT22;5969;50.780;7.726;2022-09-28T07:16:06;8.10;99.90
11824;DHT22;5969;50.780;7.726;2022-09-28T07:18:33;8.20;99.90
11824;DHT22;5969;50.780;7.726;2022-09-28T07:20:59;8.30;99.90
11824;DHT22;5969;50.780;7.726;2022-09-28T07:23:28;8.30;99.90
11824;DHT22;5969;50.780;7.726;2022-09-28T07:25:55;8.40;99.90
11824;DHT22;5969;50.780;7.726;2022-09-28T07:28:23;8.40;99.90
11824;DHT22;5969;50.780;7.726;2022-09-28T07:30:50;8.30;99.90
11824;DHT22;5969;50.780;7.726;2022-09-28T07:33:18;8.30;99.90
11824;DHT22;5969;50.780;7.726;2022-09-28T07:35:51;8.30;99.90
11824;DHT22;5969;50.780;7.726;2022-09-28T07:38:18;8.20;99.90
11824;DHT22;5969;50.780;7.726;2022-09-28T07:40:45;8.20;99.90
11824;DHT22;5969;50.780;7.726;2022-09-28T07:43:29;8.10;99.90
11824;DHT22;5969;50.780;7.726;2022-09-28T07:45:55;8.10;99.90
11824;DHT22;5969;50.780;7.726;2022-09-28T07:48:24;8.00;99.90
11824;DHT22;5969;50.780;7.726;2022-09-28T07:50:53;8.00;99.90
11824;DHT22;5969;50.780;7.726;2022-09-28T07:53:23;8.00;99.90
11824;DHT22;5969;50.780;7.726;2022-09-28T07:55:50;8.00;99.90
11824;DHT22;5969;50.780;7.726;2022-09-28T07:58:17;8.00;99.90
11824;DHT22;5969;50.780;7.726;2022-09-28T08:00:45;8.00;99.90
11824;DHT22;5969;50.780;7.726;2022-09-28T08:03:13;8.00;99.90
11824;DHT22;5969;50.780;7.726;2022-09-28T08:05:41;8.00;99.90
11824;DHT22;5969;50.780;7.726;2022-09-28T08:08:08;8.00;99.90
11824;DHT22;5969;50.780;7.726;2022-09-28T08:10:35;8.00;99.90
11824;DHT22;5969;50.780;7.726;2022-09-28T08:13:03;8.10;99.90
11824;DHT22;5969;50.780;7.726;2022-09-28T08:15:31;8.30;99.90
11824;DHT22;5969;50.780;7.726;2022-09-28T08:18:01;8.30;99.90
11824;DHT22;5969;50.780;7.726;2022-09-28T08:20:28;8.30;99.90
11824;DHT22;5969;50.780;7.726;2022-09-28T08:23:13;8.20;99.90
11824;DHT22;5969;50.780;7.726;2022-09-28T08:25:45;8.30;99.90
11824;DHT22;5969;50.780;7.726;2022-09-28T08:28:14;8.20;99.90
11824;DHT22;5969;50.780;7.726;2022-09-28T08:30:42;8.20;99.90
11824;DHT22;5969;50.780;7.726;2022-09-28T08:33:09;8.30;99.90
11824;DHT22;5969;50.780;7.726;2022-09-28T08:35:36;8.30;99.90
11824;DHT22;5969;50.780;7.726;2022-09-28T08:38:05;8.30;99.90
11824;DHT22;5969;50.780;7.726;2022-09-28T08:40:40;8.40;99.90
11824;DHT22;5969;50.780;7.726;2022-09-28T08:43:23;8.40;99.90
11824;DHT22;5969;50.780;7.726;2022-09-28T08:45:56;8.60;99.90
11824;DHT22;5969;50.780;7.726;2022-09-28T08:48:27;8.60;99.90
11824;DHT22;5969;50.780;7.726;2022-09-28T08:51:16;8.60;99.90
11824;DHT22;5969;50.780;7.726;2022-09-28T08:53:49;8.70;99.90
11824;DHT22;5969;50.780;7.726;2022-09-28T08:56:26;8.80;99.90
11824;DHT22;5969;50.780;7.726;2022-09-28T08:58:57;8.80;99.90
11824;DHT22;5969;50.780;7.726;2022-09-28T09:01:27;8.70;99.90
11824;DHT22;5969;50.780;7.726;2022-09-28T09:03:56;8.70;99.90
11824;DHT22;5969;50.780;7.726;2022-09-28T09:06:30;8.70;99.90
11824;DHT22;5969;50.780;7.726;2022-09-28T09:09:04;8.70;99.90
11824;DHT22;5969;50.780;7.726;2022-09-28T09:11:51;8.80;99.90
11824;DHT22;5969;50.780;7.726;2022-09-28T09:14:42;8.80;99.90
11824;DHT22;5969;50.780;7.726;2022-09-28T09:17:21;8.90;99.90
11824;DHT22;5969;50.780;7.726;2022-09-28T09:19:52;9.00;99.90
11824;DHT22;5969;50.780;7.726;2022-09-28T09:22:30;9.10;99.90
11824;DHT22;5969;50.780;7.726;2022-09-28T09:25:04;9.10;99.90
11824;DHT22;5969;50.780;7.726;2022-09-28T09:27:43;9.20;99.90
11824;DHT22;5969;50.780;7.726;2022-09-28T09:30:14;9.30;99.90
11824;DHT22;5969;50.780;7.726;2022-09-28T09:33:09;9.30;99.90
11824;DHT22;5969;50.780;7.726;2022-09-28T09:35:57;9.30;99.90
11824;DHT22;5969;50.780;7.726;2022-09-28T09:38:37;9.40;99.90
11824;DHT22;5969;50.780;7.726;2022-09-28T09:41:15;9.40;99.90
11824;DHT22;5969;50.780;7.726;2022-09-28T09:44:04;9.40;99.90
11824;DHT22;5969;50.780;7.726;2022-09-28T09:46:40;9.50;99.90
11824;DHT22;5969;50.780;7.726;2022-09-28T09:49:11;9.50;99.90
11824;DHT22;5969;50.780;7.726;2022-09-28T09:51:44;9.40;99.90
11824;DHT22;5969;50.780;7.726;2022-09-28T09:54:17;9.40;99.90
11824;DHT22;5969;50.780;7.726;2022-09-28T09:56:50;9.50;99.90
11824;DHT22;5969;50.780;7.726;2022-09-28T09:59:24;9.50;99.90
11824;DHT22;5969;50.780;7.726;2022-09-28T10:01:52;9.40;99.90
11824;DHT22;5969;50.780;7.726;2022-09-28T10:04:23;9.30;99.90
11824;DHT22;5969;50.780;7.726;2022-09-28T10:06:56;9.20;99.90
11824;DHT22;5969;50.780;7.726;2022-09-28T10:09:25;9.10;99.90
11824;DHT22;5969;50.780;7.726;2022-09-28T10:11:53;9.00;99.90
11824;DHT22;5969;50.780;7.726;2022-09-28T10:14:22;8.90;99.90
11824;DHT22;5969;50.780;7.726;2022-09-28T10:16:52;8.90;99.90
11824;DHT22;5969;50.780;7.726;2022-09-28T10:19:20;8.90;99.90
11824;DHT22;5969;50.780;7.726;2022-09-28T10:21:51;8.80;99.90
11824;DHT22;5969;50.780;7.726;2022-09-28T10:24:24;8.80;99.90
11824;DHT22;5969;50.780;7.726;2022-09-28T10:26:54;8.90;99.90
11824;DHT22;5969;50.780;7.726;2022-09-28T10:29:25;9.10;99.90
11824;DHT22;5969;50.780;7.726;2022-09-28T10:31:53;9.10;99.90
11824;DHT22;5969;50.780;7.726;2022-09-28T10:34:25;9.20;99.90
11824;DHT22;5969;50.780;7.726;2022-09-28T10:36:54;9.30;99.90
11824;DHT22;5969;50.780;7.726;2022-09-28T10:39:32;9.30;99.90
11824;DHT22;5969;50.780;7.726;2022-09-28T10:42:02;9.40;99.90
11824;DHT22;5969;50.780;7.726;2022-09-28T10:44:34;9.50;99.90
11824;DHT22;5969;50.780;7.726;2022-09-28T10:47:05;9.60;99.90
11824;DHT22;5969;50.780;7.726;2022-09-28T10:49:38;9.50;99.90
11824;DHT22;5969;50.780;7.726;2022-09-28T10:52:31;9.50;99.90
11824;DHT22;5969;50.780;7.726;2022-09-28T10:54:59;9.70;99.90
11824;DHT22;5969;50.780;7.726;2022-09-28T10:57:28;9.80;99.90
11824;DHT22;5969;50.780;7.726;2022-09-28T11:00:00;9.90;99.90
11824;DHT22;5969;50.780;7.726;2022-09-28T11:02:29;10.10;99.90
11824;DHT22;5969;50.780;7.726;2022-09-28T11:04:57;10.20;99.90
11824;DHT22;5969;50.780;7.726;2022-09-28T11:07:25;10.10;99.90
11824;DHT22;5969;50.780;7.726;2022-09-28T11:09:54;10.10;99.90
11824;DHT22;5969;50.780;7.726;2022-09-28T11:12:23;10.10;99.90
11824;DHT22;5969;50.780;7.726;2022-09-28T11:14:55;10.10;99.90
11824;DHT22;5969;50.780;7.726;2022-09-28T11:17:28;10.10;99.90
11824;DHT22;5969;50.780;7.726;2022-09-28T11:19:56;10.20;99.90
11824;DHT22;5969;50.780;7.726;2022-09-28T11:22:26;10.30;99.90
11824;DHT22;5969;50.780;7.726;2022-09-28T11:25:19;10.60;99.90
11824;DHT22;5969;50.780;7.726;2022-09-28T11:27:56;10.60;99.90
11824;DHT22;5969;50.780;7.726;2022-09-28T11:30:26;10.70;99.90
11824;DHT22;5969;50.780;7.726;2022-09-28T11:32:59;10.70;99.90
11824;DHT22;5969;50.780;7.726;2022-09-28T11:35:34;10.80;99.90
11824;DHT22;5969;50.780;7.726;2022-09-28T11:38:16;10.90;99.90
11824;DHT22;5969;50.780;7.726;2022-09-28T11:40:53;10.80;99.90
11824;DHT22;5969;50.780;7.726;2022-09-28T11:43:38;10.80;99.90
11824;DHT22;5969;50.780;7.726;2022-09-28T11:46:12;10.80;99.90
11824;DHT22;5969;50.780;7.726;2022-09-28T11:48:46;10.90;99.90
11824;DHT22;5969;50.780;7.726;2022-09-28T11:51:17;11.10;99.90
11824;DHT22;5969;50.780;7.726;2022-09-28T11:53:50;11.20;99.90
11824;DHT22;5969;50.780;7.726;2022-09-28T11:56:31;11.30;99.90
11824;DHT22;5969;50.780;7.726;2022-09-28T11:59:03;11.50;99.90
11824;DHT22;5969;50.780;7.726;2022-09-28T12:01:35;11.50;99.90
11824;DHT22;5969;50.780;7.726;2022-09-28T12:04:10;11.40;99.90
11824;DHT22;5969;50.780;7.726;2022-09-28T12:06:42;11.60;99.90
11824;DHT22;5969;50.780;7.726;2022-09-28T12:09:16;11.50;99.90
11824;DHT22;5969;50.780;7.726;2022-09-28T12:11:46;11.30;99.90
11824;DHT22;5969;50.780;7.726;2022-09-28T12:14:19;11.20;99.90
11824;DHT22;5969;50.780;7.726;2022-09-28T12:16:50;11.30;99.90
11824;DHT22;5969;50.780;7.726;2022-09-28T12:19:24;11.40;99.90
11824;DHT22;5969;50.780;7.726;2022-09-28T12:21:56;11.40;99.90
11824;DHT22;5969;50.780;7.726;2022-09-28T12:24:26;11.60;99.90
11824;DHT22;5969;50.780;7.726;2022-09-28T12:26:57;11.70;99.90
11824;DHT22;5969;50.780;7.726;2022-09-28T12:29:28;11.70;99.90
11824;DHT22;5969;50.780;7.726;2022-09-28T12:32:03;11.70;99.90
11824;DHT22;5969;50.780;7.726;2022-09-28T12:34:32;11.80;99.90
11824;DHT22;5969;50.780;7.726;2022-09-28T12:37:30;11.70;99.90
11824;DHT22;5969;50.780;7.726;2022-09-28T12:40:28;11.70;99.90
11824;DHT22;5969;50.780;7.726;2022-09-28T12:43:08;11.60;99.90
11824;DHT22;5969;50.780;7.726;2022-09-28T12:45:56;11.40;99.90
11824;DHT22;5969;50.780;7.726;2022-09-28T12:51:30;11.30;99.90
11824;DHT22;5969;50.780;7.726;2022-09-28T12:54:13;11.20;99.90
11824;DHT22;5969;50.780;7.726;2022-09-28T12:56:59;11.20;99.90
11824;DHT22;5969;50.780;7.726;2022-09-28T12:59:32;11.20;99.90
11824;DHT22;5969;50.780;7.726;2022-09-28T13:02:41;11.20;99.90
11824;DHT22;5969;50.780;7.726;2022-09-28T13:05:37;11.20;99.90
11824;DHT22;5969;50.780;7.726;2022-09-28T13:08:14;11.20;99.90
11824;DHT22;5969;50.780;7.726;2022-09-28T13:10:47;11.10;99.90
11824;DHT22;5969;50.780;7.726;2022-09-28T13:13:30;11.10;99.90
11824;DHT22;5969;50.780;7.726;2022-09-28T13:16:06;11.10;99.90
11824;DHT22;5969;50.780;7.726;2022-09-28T13:18:39;11.20;99.90
11824;DHT22;5969;50.780;7.726;2022-09-28T13:21:16;11.30;99.90
11824;DHT22;5969;50.780;7.726;2022-09-28T13:23:51;11.50;99.90
11824;DHT22;5969;50.780;7.726;2022-09-28T13:26:24;11.70;99.90
11824;DHT22;5969;50.780;7.726;2022-09-28T13:28:54;11.70;99.90
11824;DHT22;5969;50.780;7.726;2022-09-28T13:31:24;11.80;99.90
11824;DHT22;5969;50.780;7.726;2022-09-28T13:33:56;11.80;99.90
11824;DHT22;5969;50.780;7.726;2022-09-28T13:36:38;11.90;99.90
11824;DHT22;5969;50.780;7.726;2022-09-28T13:39:36;12.00;99.90
11824;DHT22;5969;50.780;7.726;2022-09-28T13:42:05;12.10;99.90
11824;DHT22;5969;50.780;7.726;2022-09-28T13:45:10;12.10;99.90
11824;DHT22;5969;50.780;7.726;2022-09-28T13:47:50;12.00;99.90
11824;DHT22;5969;50.780;7.726;2022-09-28T13:50:26;12.00;99.90
11824;DHT22;5969;50.780;7.726;2022-09-28T13:52:59;12.00;99.90
11824;DHT22;5969;50.780;7.726;2022-09-28T13:55:36;11.90;99.90
11824;DHT22;5969;50.780;7.726;2022-09-28T13:58:14;11.80;99.90
11824;DHT22;5969;50.780;7.726;2022-09-28T14:00:48;11.60;99.90
11824;DHT22;5969;50.780;7.726;2022-09-28T14:03:24;11.30;99.90
11824;DHT22;5969;50.780;7.726;2022-09-28T14:06:04;11.20;99.90
11824;DHT22;5969;50.780;7.726;2022-09-28T14:08:36;11.10;99.90
11824;DHT22;5969;50.780;7.726;2022-09-28T14:14:29;11.00;99.90
11824;DHT22;5969;50.780;7.726;2022-09-28T14:20:01;11.10;99.90
11824;DHT22;5969;50.780;7.726;2022-09-28T14:22:49;11.30;99.90
11824;DHT22;5969;50.780;7.726;2022-09-28T14:25:23;11.50;99.90
11824;DHT22;5969;50.780;7.726;2022-09-28T14:28:02;11.70;99.90
11824;DHT22;5969;50.780;7.726;2022-09-28T14:30:46;11.80;99.90
11824;DHT22;5969;50.780;7.726;2022-09-28T14:33:24;11.80;99.90
11824;DHT22;5969;50.780;7.726;2022-09-28T14:35:54;11.70;99.90
11824;DHT22;5969;50.780;7.726;2022-09-28T14:38:24;11.70;99.90
11824;DHT22;5969;50.780;7.726;2022-09-28T14:41:27;11.70;99.90
11824;DHT22;5969;50.780;7.726;2022-09-28T14:44:00;11.70;99.90
11824;DHT22;5969;50.780;7.726;2022-09-28T14:46:39;11.70;99.90
11824;DHT22;5969;50.780;7.726;2022-09-28T14:49:42;11.70;99.90
11824;DHT22;5969;50.780;7.726;2022-09-28T14:52:12;11.60;99.90
11824;DHT22;5969;50.780;7.726;2022-09-28T14:54:53;11.60;99.90
11824;DHT22;5969;50.780;7.726;2022-09-28T14:57:24;11.60;99.90
11824;DHT22;5969;50.780;7.726;2022-09-28T14:59:51;11.50;99.90
11824;DHT22;5969;50.780;7.726;2022-09-28T15:02:26;11.50;99.90
11824;DHT22;5969;50.780;7.726;2022-09-28T15:05:00;11.50;99.90
11824;DHT22;5969;50.780;7.726;2022-09-28T15:07:43;11.60;99.90
11824;DHT22;5969;50.780;7.726;2022-09-28T15:10:21;11.50;99.90
11824;DHT22;5969;50.780;7.726;2022-09-28T15:12:50;11.60;99.90
11824;DHT22;5969;50.780;7.726;2022-09-28T15:15:24;11.70;99.90
11824;DHT22;5969;50.780;7.726;2022-09-28T15:18:02;11.90;99.90
11824;DHT22;5969;50.780;7.726;2022-09-28T15:20:33;12.00;99.90
11824;DHT22;5969;50.780;7.726;2022-09-28T15:23:01;11.70;99.90
11824;DHT22;5969;50.780;7.726;2022-09-28T15:25:28;11.70;99.90
11824;DHT22;5969;50.780;7.726;2022-09-28T15:27:57;11.70;99.90
11824;DHT22;5969;50.780;7.726;2022-09-28T15:30:28;11.70;99.90
11824;DHT22;5969;50.780;7.726;2022-09-28T15:32:59;11.60;99.90
11824;DHT22;5969;50.780;7.726;2022-09-28T15:35:39;11.60;99.90
11824;DHT22;5969;50.780;7.726;2022-09-28T15:38:13;11.50;99.90
11824;DHT22;5969;50.780;7.726;2022-09-28T15:40:41;11.60;99.90
11824;DHT22;5969;50.780;7.726;2022-09-28T15:43:20;11.60;99.90
11824;DHT22;5969;50.780;7.726;2022-09-28T15:45:55;11.50;99.90
11824;DHT22;5969;50.780;7.726;2022-09-28T15:48:30;11.60;99.90
11824;DHT22;5969;50.780;7.726;2022-09-28T15:51:05;11.70;99.90
11824;DHT22;5969;50.780;7.726;2022-09-28T15:53:39;11.80;99.90
11824;DHT22;5969;50.780;7.726;2022-09-28T15:56:07;12.10;99.90
11824;DHT22;5969;50.780;7.726;2022-09-28T15:58:37;12.10;99.90
11824;DHT22;5969;50.780;7.726;2022-09-28T16:01:26;12.20;99.90
11824;DHT22;5969;50.780;7.726;2022-09-28T16:04:34;12.30;99.90
11824;DHT22;5969;50.780;7.726;2022-09-28T16:07:23;12.30;99.90
11824;DHT22;5969;50.780;7.726;2022-09-28T16:09:55;12.10;99.90
11824;DHT22;5969;50.780;7.726;2022-09-28T16:12:24;12.00;99.90
11824;DHT22;5969;50.780;7.726;2022-09-28T16:14:57;11.90;99.90
11824;DHT22;5969;50.780;7.726;2022-09-28T16:17:29;11.70;99.90
11824;DHT22;5969;50.780;7.726;2022-09-28T16:20:00;11.60;99.90
11824;DHT22;5969;50.780;7.726;2022-09-28T16:22:29;11.50;99.90
11824;DHT22;5969;50.780;7.726;2022-09-28T16:24:58;11.50;99.90
11824;DHT22;5969;50.780;7.726;2022-09-28T16:27:28;11.40;99.90
11824;DHT22;5969;50.780;7.726;2022-09-28T16:30:14;11.20;99.90
11824;DHT22;5969;50.780;7.726;2022-09-28T16:32:56;11.00;99.90
11824;DHT22;5969;50.780;7.726;2022-09-28T16:35:27;10.80;99.90
11824;DHT22;5969;50.780;7.726;2022-09-28T16:38:02;10.80;99.90
11824;DHT22;5969;50.780;7.726;2022-09-28T16:40:31;10.80;99.90